createdAt,value
2023-05-16T00:01:10.092Z,8.70
2023-05-16T00:03:39.545Z,8.70
2023-05-16T00:06:06.381Z,8.60
2023-05-16T00:08:33.412Z,8.70
2023-05-16T00:11:00.428Z,8.70
2023-05-16T00:13:28.035Z,8.80
2023-05-16T00:15:56.101Z,8.80
2023-05-16T00:18:23.060Z,8.90
2023-05-16T00:20:53.155Z,8.80
2023-05-16T00:23:21.831Z,8.70
2023-05-16T00:25:49.062Z,8.70
2023-05-16T00:28:15.987Z,8.70
2023-05-16T00:30:42.657Z,8.70
2023-05-16T00:33:09.634Z,8.60
2023-05-16T00:35:36.712Z,8.60
2023-05-16T00:38:03.751Z,8.40
2023-05-16T00:40:30.698Z,8.30
2023-05-16T00:42:58.788Z,8.40
2023-05-16T00:45:26.467Z,8.40
2023-05-16T00:47:53.128Z,8.50
2023-05-16T00:50:20.369Z,8.40
2023-05-16T00:52:47.246Z,8.40
2023-05-16T00:55:14.392Z,8.50
2023-05-16T00:57:41.374Z,8.50
2023-05-16T01:00:12.251Z,8.40
2023-05-16T01:02:39.343Z,8.40
2023-05-16T01:05:07.356Z,8.30
2023-05-16T01:07:35.350Z,8.30
2023-05-16T01:10:03.563Z,8.30
2023-05-16T01:12:30.495Z,8.30
2023-05-16T01:15:05.213Z,8.20
2023-05-16T01:17:43.903Z,8.20
2023-05-16T01:20:16.556Z,8.10
2023-05-16T01:22:47.458Z,8.20
2023-05-16T01:25:24.813Z,8.20
2023-05-16T01:27:52.555Z,8.20
2023-05-16T01:30:20.026Z,8.20
2023-05-16T01:32:47.138Z,8.30
2023-05-16T01:35:15.769Z,8.30
2023-05-16T01:37:48.571Z,8.40
2023-05-16T01:40:18.012Z,8.40
2023-05-16T01:42:45.562Z,8.30
2023-05-16T01:45:20.954Z,8.40
2023-05-16T01:47:52.416Z,8.50
2023-05-16T01:50:21.126Z,8.40
2023-05-16T01:52:48.021Z,8.30
2023-05-16T01:55:37.796Z,8.30
2023-05-16T01:58:05.006Z,8.40
2023-05-16T02:00:31.957Z,8.30
2023-05-16T02:02:58.771Z,8.30
2023-05-16T02:05:27.026Z,8.20
2023-05-16T02:07:54.104Z,8.20
2023-05-16T02:10:21.302Z,8.20
2023-05-16T02:12:48.199Z,8.30
2023-05-16T02:15:15.277Z,8.40
2023-05-16T02:17:42.707Z,8.40
2023-05-16T02:20:10.268Z,8.30
2023-05-16T02:22:39.212Z,8.20
2023-05-16T02:25:06.671Z,8.10
2023-05-16T02:27:33.313Z,8.10
2023-05-16T02:30:01.272Z,8.00
2023-05-16T02:32:28.320Z,7.90
2023-05-16T02:34:55.365Z,7.80
2023-05-16T02:37:22.390Z,7.80
2023-05-16T02:39:51.060Z,7.80
2023-05-16T02:42:18.114Z,7.70
2023-05-16T02:44:45.127Z,7.70
2023-05-16T02:47:11.797Z,7.80
2023-05-16T02:49:38.816Z,7.90
2023-05-16T02:52:05.961Z,8.00
2023-05-16T02:54:32.911Z,8.10
2023-05-16T02:56:59.570Z,8.20
2023-05-16T02:59:27.290Z,8.20
2023-05-16T03:01:55.304Z,8.20
2023-05-16T03:04:23.679Z,8.20
2023-05-16T03:06:51.217Z,8.10
2023-05-16T03:09:18.185Z,8.10
2023-05-16T03:11:45.479Z,8.10
2023-05-16T03:14:12.267Z,8.00
2023-05-16T03:16:41.552Z,7.90
2023-05-16T03:19:08.347Z,8.00
2023-05-16T03:21:35.394Z,7.90
2023-05-16T03:24:05.529Z,7.90
2023-05-16T03:26:33.607Z,7.80
2023-05-16T03:29:00.651Z,7.80
2023-05-16T03:31:27.333Z,7.60
2023-05-16T03:33:57.389Z,7.40
2023-05-16T03:36:27.176Z,7.30
2023-05-16T03:38:54.153Z,7.30
2023-05-16T03:41:22.274Z,7.30
2023-05-16T03:43:49.040Z,7.30
2023-05-16T03:46:15.759Z,7.30
2023-05-16T03:48:42.797Z,7.30
2023-05-16T03:51:09.786Z,7.40
2023-05-16T03:53:37.097Z,7.70
2023-05-16T03:56:04.192Z,7.90
2023-05-16T03:58:30.945Z,8.00
2023-05-16T04:00:57.554Z,8.00
2023-05-16T04:03:28.492Z,8.00
2023-05-16T04:05:56.473Z,8.00
2023-05-16T04:08:24.505Z,8.00
2023-05-16T04:10:51.552Z,8.00
2023-05-16T04:13:18.586Z,7.90
2023-05-16T04:15:46.502Z,7.70
2023-05-16T04:18:13.680Z,7.60
2023-05-16T04:20:44.604Z,7.60
2023-05-16T04:23:12.093Z,7.60
2023-05-16T04:25:39.315Z,7.70
2023-05-16T04:28:06.310Z,7.90
2023-05-16T04:30:33.369Z,8.00
2023-05-16T04:33:00.307Z,8.10
2023-05-16T04:35:28.545Z,8.10
2023-05-16T04:37:56.908Z,8.20
2023-05-16T04:40:25.343Z,8.30
2023-05-16T04:42:53.421Z,8.20
2023-05-16T04:45:21.090Z,8.10
2023-05-16T04:47:47.941Z,8.20
2023-05-16T04:50:16.203Z,8.10
2023-05-16T04:52:43.205Z,8.30
2023-05-16T04:55:10.453Z,8.30
2023-05-16T04:57:37.300Z,8.40
2023-05-16T05:00:07.994Z,8.30
2023-05-16T05:02:37.134Z,8.20
2023-05-16T05:05:04.643Z,8.20
2023-05-16T05:07:32.318Z,8.20
2023-05-16T05:09:59.225Z,8.20
2023-05-16T05:12:27.776Z,8.10
2023-05-16T05:14:54.816Z,8.00
2023-05-16T05:17:21.825Z,8.00
2023-05-16T05:19:48.926Z,8.00
2023-05-16T05:22:15.632Z,8.10
2023-05-16T05:24:42.617Z,8.20
2023-05-16T05:27:09.896Z,8.20
2023-05-16T05:29:36.775Z,8.30
2023-05-16T05:32:03.975Z,8.30
2023-05-16T05:34:32.117Z,8.40
2023-05-16T05:36:59.094Z,8.50
2023-05-16T05:39:26.460Z,8.50
2023-05-16T05:41:53.169Z,8.50
2023-05-16T05:44:20.243Z,8.50
2023-05-16T05:46:47.386Z,8.50
2023-05-16T05:49:14.584Z,8.50
2023-05-16T05:51:41.439Z,8.60
2023-05-16T05:54:08.490Z,8.80
2023-05-16T05:56:35.472Z,8.80
2023-05-16T05:59:02.452Z,9.00
2023-05-16T06:01:29.123Z,9.50
2023-05-16T06:03:56.850Z,10.40
2023-05-16T06:06:23.888Z,11.30
2023-05-16T06:08:51.043Z,11.90
2023-05-16T06:11:18.882Z,12.40
2023-05-16T06:13:46.806Z,12.90
2023-05-16T06:16:13.759Z,13.60
2023-05-16T06:18:40.995Z,14.50
2023-05-16T06:21:08.052Z,14.80
2023-05-16T06:23:35.853Z,15.90
2023-05-16T06:26:03.445Z,16.50
2023-05-16T06:28:31.668Z,16.20
2023-05-16T06:30:58.323Z,15.80
2023-05-16T06:33:25.120Z,15.00
2023-05-16T06:35:52.429Z,14.90
2023-05-16T06:38:22.069Z,14.80
2023-05-16T06:40:49.311Z,15.10
2023-05-16T06:43:16.192Z,14.90
2023-05-16T06:45:44.459Z,14.70
2023-05-16T06:48:11.616Z,14.80
2023-05-16T06:50:38.571Z,15.20
2023-05-16T06:53:07.290Z,15.20
2023-05-16T06:55:34.784Z,15.70
2023-05-16T06:58:01.721Z,15.70
2023-05-16T07:00:28.369Z,16.10
2023-05-16T07:02:55.748Z,16.20
2023-05-16T07:05:22.516Z,16.30
2023-05-16T07:07:49.844Z,16.70
2023-05-16T07:10:16.720Z,16.60
2023-05-16T07:12:44.725Z,16.50
2023-05-16T07:15:11.603Z,16.70
2023-05-16T07:17:38.835Z,16.60
2023-05-16T07:20:06.575Z,16.10
2023-05-16T07:22:33.651Z,16.00
2023-05-16T07:25:01.432Z,15.50
2023-05-16T07:27:28.596Z,16.20
2023-05-16T07:29:56.637Z,15.50
2023-05-16T07:32:23.769Z,14.90
2023-05-16T07:34:50.785Z,14.10
2023-05-16T07:37:18.504Z,13.60
2023-05-16T07:39:45.235Z,13.20
2023-05-16T07:42:12.336Z,12.70
2023-05-16T07:44:39.416Z,12.30
2023-05-16T07:47:06.540Z,12.10
2023-05-16T07:49:33.548Z,12.00
2023-05-16T07:52:01.324Z,13.00
2023-05-16T07:54:28.363Z,13.60
2023-05-16T07:56:55.587Z,14.40
2023-05-16T07:59:22.515Z,14.80
2023-05-16T08:01:49.368Z,15.60
2023-05-16T08:04:16.144Z,16.10
2023-05-16T08:06:43.195Z,17.00
2023-05-16T08:09:10.410Z,16.80
2023-05-16T08:11:37.305Z,17.00
2023-05-16T08:14:04.316Z,16.90
2023-05-16T08:16:31.523Z,16.90
2023-05-16T08:18:58.496Z,16.80
2023-05-16T08:21:25.545Z,17.70
2023-05-16T08:23:52.496Z,16.30
2023-05-16T08:26:19.548Z,15.00
2023-05-16T08:28:46.624Z,14.30
2023-05-16T08:31:13.305Z,14.20
2023-05-16T08:33:40.351Z,15.40
2023-05-16T08:36:07.494Z,16.90
2023-05-16T08:38:35.228Z,18.00
2023-05-16T08:41:02.285Z,18.10
2023-05-16T08:43:29.504Z,17.90
2023-05-16T08:45:56.774Z,18.50
2023-05-16T08:48:24.320Z,18.40
2023-05-16T08:50:51.758Z,18.10
2023-05-16T08:53:22.326Z,18.60
2023-05-16T08:55:49.483Z,18.00
2023-05-16T08:58:17.678Z,17.80
2023-05-16T09:00:44.612Z,17.40
2023-05-16T09:03:11.631Z,17.90
2023-05-16T09:05:38.642Z,16.00
2023-05-16T09:08:06.623Z,16.50
2023-05-16T09:10:33.374Z,17.50
2023-05-16T09:13:00.093Z,18.60
2023-05-16T09:15:31.411Z,18.80
2023-05-16T09:18:00.412Z,20.00
2023-05-16T09:20:28.662Z,18.80
2023-05-16T09:22:59.180Z,18.80
2023-05-16T09:25:30.147Z,18.20
2023-05-16T09:27:59.658Z,17.20
2023-05-16T09:30:31.026Z,16.90
2023-05-16T09:32:57.829Z,17.50
2023-05-16T09:35:39.561Z,18.00
2023-05-16T09:38:17.449Z,18.90
2023-05-16T09:40:45.076Z,19.90
2023-05-16T09:43:14.464Z,19.70
2023-05-16T09:45:45.131Z,20.10
2023-05-16T09:48:14.877Z,20.00
2023-05-16T09:50:46.648Z,18.10
2023-05-16T09:53:13.633Z,16.80
2023-05-16T09:55:40.593Z,16.00
2023-05-16T09:58:07.515Z,15.40
2023-05-16T10:00:34.439Z,15.10
2023-05-16T10:03:06.275Z,15.40
2023-05-16T10:05:34.800Z,15.90
2023-05-16T10:08:02.968Z,15.90
2023-05-16T10:10:29.937Z,16.90
2023-05-16T10:12:58.854Z,18.00
2023-05-16T10:15:26.626Z,18.40
2023-05-16T10:17:56.690Z,19.20
2023-05-16T10:20:23.751Z,20.40
2023-05-16T10:22:53.127Z,20.50
2023-05-16T10:25:29.570Z,21.10
2023-05-16T10:27:56.745Z,20.10
2023-05-16T10:30:23.412Z,17.80
2023-05-16T10:32:51.928Z,17.80
2023-05-16T10:35:20.094Z,18.40
2023-05-16T10:37:47.763Z,19.30
2023-05-16T10:40:14.954Z,19.30
2023-05-16T10:43:03.853Z,19.70
2023-05-16T10:45:31.287Z,19.10
2023-05-16T10:47:59.336Z,18.60
2023-05-16T10:50:33.647Z,18.80
2023-05-16T10:53:13.842Z,19.30
2023-05-16T10:55:44.574Z,19.90
2023-05-16T10:58:11.235Z,20.80
2023-05-16T11:00:39.325Z,21.00
2023-05-16T11:03:06.810Z,19.90
2023-05-16T11:05:34.485Z,18.50
2023-05-16T11:08:07.708Z,18.40
2023-05-16T11:10:34.681Z,18.70
2023-05-16T11:13:07.675Z,19.60
2023-05-16T11:15:34.747Z,20.30
2023-05-16T11:18:06.335Z,21.00
2023-05-16T11:20:42.363Z,21.20
2023-05-16T11:23:22.673Z,21.30
2023-05-16T11:25:51.029Z,22.80
2023-05-16T11:28:19.457Z,21.10
2023-05-16T11:30:48.043Z,20.60
2023-05-16T11:33:15.718Z,19.70
2023-05-16T11:35:43.361Z,19.00
2023-05-16T11:38:16.657Z,18.50
2023-05-16T11:40:46.413Z,18.00
2023-05-16T11:43:18.085Z,19.40
2023-05-16T11:45:45.531Z,19.90
2023-05-16T11:48:19.154Z,19.00
2023-05-16T11:50:55.511Z,18.00
2023-05-16T11:53:24.448Z,18.10
2023-05-16T11:55:55.745Z,17.40
2023-05-16T11:58:23.555Z,17.10
2023-05-16T12:00:51.143Z,17.10
2023-05-16T12:03:20.570Z,17.40
2023-05-16T12:05:53.966Z,17.90
2023-05-16T12:08:21.988Z,17.20
2023-05-16T12:10:50.457Z,17.90
2023-05-16T12:13:20.018Z,19.00
2023-05-16T12:15:48.108Z,19.40
2023-05-16T12:18:15.765Z,19.80
2023-05-16T12:20:45.906Z,18.60
2023-05-16T12:23:13.418Z,18.80
2023-05-16T12:25:46.421Z,19.80
2023-05-16T12:28:14.778Z,20.00
2023-05-16T12:30:42.933Z,19.80
2023-05-16T12:33:09.956Z,18.70
2023-05-16T12:35:38.794Z,19.70
2023-05-16T12:38:06.593Z,20.70
2023-05-16T12:40:33.302Z,20.50
2023-05-16T12:43:00.167Z,20.00
2023-05-16T12:45:27.940Z,19.60
2023-05-16T12:47:54.935Z,20.00
2023-05-16T12:50:22.946Z,20.30
2023-05-16T12:52:53.979Z,20.30
2023-05-16T12:55:22.202Z,20.30
2023-05-16T12:57:49.770Z,18.70
2023-05-16T13:00:21.230Z,18.20
2023-05-16T13:02:49.122Z,17.90
2023-05-16T13:05:16.292Z,17.40
2023-05-16T13:07:43.124Z,18.50
2023-05-16T13:10:11.401Z,19.20
2023-05-16T13:12:39.223Z,19.00
2023-05-16T13:15:09.641Z,18.10
2023-05-16T13:17:37.337Z,17.50
2023-05-16T13:20:13.516Z,17.30
2023-05-16T13:22:41.043Z,17.30
2023-05-16T13:25:08.771Z,17.30
2023-05-16T13:27:35.811Z,17.40
2023-05-16T13:30:07.376Z,17.10
2023-05-16T13:32:34.545Z,16.90
2023-05-16T13:35:02.635Z,17.10
2023-05-16T13:37:30.946Z,17.30
2023-05-16T13:39:57.746Z,17.40
2023-05-16T13:42:24.735Z,17.40
2023-05-16T13:44:52.113Z,17.40
2023-05-16T13:47:18.923Z,17.50
2023-05-16T13:49:46.147Z,17.50
2023-05-16T13:52:13.256Z,17.40
2023-05-16T13:54:41.345Z,17.20
2023-05-16T13:57:08.368Z,17.10
2023-05-16T14:00:01.998Z,17.20
2023-05-16T14:02:22.766Z,17.50
2023-05-16T14:04:50.099Z,17.40
2023-05-16T14:07:22.910Z,17.20
2023-05-16T14:09:55.649Z,17.00
2023-05-16T14:12:22.519Z,16.80
2023-05-16T14:14:50.301Z,16.80
2023-05-16T14:17:17.114Z,17.00
2023-05-16T14:19:44.003Z,17.20
2023-05-16T14:22:10.880Z,17.40
2023-05-16T14:24:37.719Z,17.20
2023-05-16T14:27:04.901Z,17.20
2023-05-16T14:29:31.924Z,16.90
2023-05-16T14:31:58.835Z,16.60
2023-05-16T14:34:25.982Z,16.70
2023-05-16T14:36:53.011Z,16.50
2023-05-16T14:39:20.009Z,16.50
2023-05-16T14:41:47.158Z,16.40
2023-05-16T14:44:14.074Z,16.60
2023-05-16T14:46:41.228Z,16.70
2023-05-16T14:49:09.086Z,16.90
2023-05-16T14:51:36.418Z,16.80
2023-05-16T14:54:03.354Z,16.70
2023-05-16T14:56:30.383Z,16.60
2023-05-16T14:58:57.365Z,16.60
2023-05-16T15:01:24.048Z,16.70
2023-05-16T15:03:55.926Z,16.50
2023-05-16T15:06:24.868Z,16.50
2023-05-16T15:08:51.880Z,16.70
2023-05-16T15:11:22.086Z,16.80
2023-05-16T15:13:51.926Z,17.00
2023-05-16T15:16:19.896Z,17.30
2023-05-16T15:18:46.888Z,17.10
2023-05-16T15:21:14.689Z,16.80
2023-05-16T15:23:45.133Z,16.80
2023-05-16T15:26:11.998Z,16.80
2023-05-16T15:28:38.680Z,16.90
2023-05-16T15:31:05.780Z,16.80
2023-05-16T15:33:32.805Z,16.70
2023-05-16T15:36:01.612Z,16.60
2023-05-16T15:38:38.396Z,16.70
2023-05-16T15:41:24.109Z,16.80
2023-05-16T15:43:59.440Z,16.70
2023-05-16T15:46:33.020Z,16.60
2023-05-16T15:49:01.011Z,16.40
2023-05-16T15:51:28.818Z,16.00
2023-05-16T15:54:02.238Z,15.90
2023-05-16T15:56:29.049Z,16.00
2023-05-16T15:58:57.731Z,16.00
2023-05-16T16:01:24.624Z,16.10
2023-05-16T16:03:55.835Z,16.20
2023-05-16T16:06:40.202Z,16.20
2023-05-16T16:09:13.078Z,16.20
2023-05-16T16:11:40.886Z,16.20
2023-05-16T16:14:12.032Z,16.00
2023-05-16T16:16:42.835Z,15.80
2023-05-16T16:19:15.414Z,15.60
2023-05-16T16:21:42.109Z,15.60
2023-05-16T16:24:10.860Z,15.70
2023-05-16T16:26:37.965Z,15.50
2023-05-16T16:29:14.791Z,15.50
2023-05-16T16:31:41.838Z,15.50
2023-05-16T16:34:09.640Z,15.60
2023-05-16T16:36:38.388Z,15.70
2023-05-16T16:39:05.737Z,15.80
2023-05-16T16:41:36.547Z,15.90
2023-05-16T16:46:41.787Z,15.90
2023-05-16T16:49:08.743Z,15.70
2023-05-16T16:54:21.710Z,15.60
2023-05-16T16:56:49.529Z,15.50
2023-05-16T16:59:22.058Z,15.50
2023-05-16T17:01:56.701Z,15.40
2023-05-16T17:04:27.995Z,15.40
2023-05-16T17:12:22.235Z,15.40
2023-05-16T17:15:17.616Z,15.50
2023-05-16T17:17:47.842Z,15.40
2023-05-16T17:20:48.918Z,15.30
2023-05-16T17:23:20.906Z,15.20
2023-05-16T17:25:47.962Z,15.20
2023-05-16T17:28:24.992Z,15.10
2023-05-16T17:33:20.171Z,14.90
2023-05-16T17:35:47.499Z,14.80
2023-05-16T17:38:15.483Z,14.80
2023-05-16T17:40:44.597Z,14.60
2023-05-16T17:43:13.989Z,14.60
2023-05-16T17:45:41.965Z,14.50
2023-05-16T17:48:10.171Z,14.50
2023-05-16T17:50:43.511Z,14.50
2023-05-16T17:53:11.328Z,14.60
2023-05-16T17:55:38.601Z,14.70
2023-05-16T17:58:06.845Z,14.60
2023-05-16T18:00:33.602Z,14.60
2023-05-16T18:03:00.600Z,14.60
2023-05-16T18:05:28.612Z,14.50
2023-05-16T18:08:03.802Z,14.50
2023-05-16T18:10:47.490Z,14.60
2023-05-16T18:13:23.860Z,14.60
2023-05-16T18:15:52.800Z,14.50
2023-05-16T18:18:19.944Z,14.50
2023-05-16T18:20:47.136Z,14.50
2023-05-16T18:23:21.455Z,14.30
2023-05-16T18:25:48.632Z,14.30
2023-05-16T18:28:16.689Z,14.30
2023-05-16T18:30:45.769Z,14.30
2023-05-16T18:33:13.357Z,14.30
2023-05-16T18:35:41.508Z,14.20
2023-05-16T18:38:14.658Z,14.10
2023-05-16T18:40:56.015Z,14.00
2023-05-16T18:43:24.703Z,13.90
2023-05-16T18:45:51.760Z,14.00
2023-05-16T18:48:22.206Z,14.00
2023-05-16T18:50:51.341Z,13.90
2023-05-16T18:53:18.286Z,13.90
2023-05-16T18:55:48.853Z,14.10
2023-05-16T18:58:21.485Z,14.00
2023-05-16T19:00:49.246Z,13.90
2023-05-16T19:03:19.353Z,13.90
2023-05-16T19:05:48.857Z,14.00
2023-05-16T19:08:36.759Z,13.90
2023-05-16T19:11:15.302Z,13.90
2023-05-16T19:13:42.103Z,13.70
2023-05-16T19:16:09.212Z,13.70
2023-05-16T19:21:10.970Z,13.70
2023-05-16T19:23:39.038Z,13.50
2023-05-16T19:26:06.938Z,13.40
2023-05-16T19:28:40.748Z,13.20
2023-05-16T19:31:07.647Z,13.20
2023-05-16T19:33:35.732Z,13.20
2023-05-16T19:36:06.965Z,13.20
2023-05-16T19:38:36.768Z,13.20
2023-05-16T19:41:07.517Z,13.00
2023-05-16T19:43:34.848Z,13.10
2023-05-16T19:46:04.931Z,13.00
2023-05-16T19:48:31.751Z,13.10
2023-05-16T19:51:06.229Z,13.00
2023-05-16T19:53:40.886Z,13.00
2023-05-16T19:56:09.671Z,12.90
2023-05-16T19:58:44.414Z,12.80
2023-05-16T20:01:12.172Z,12.80
2023-05-16T20:03:39.347Z,12.70
2023-05-16T20:06:09.218Z,12.70
2023-05-16T20:08:41.895Z,12.70
2023-05-16T20:11:08.989Z,12.60
2023-05-16T20:13:39.673Z,12.70
2023-05-16T20:16:10.788Z,12.60
2023-05-16T20:18:37.548Z,12.70
2023-05-16T20:21:05.333Z,12.60
2023-05-16T20:23:32.428Z,12.60
2023-05-16T20:26:01.550Z,12.60
2023-05-16T20:28:28.820Z,12.50
2023-05-16T20:31:03.809Z,12.40
2023-05-16T20:33:33.863Z,12.40
2023-05-16T20:36:02.779Z,12.40
2023-05-16T20:38:41.800Z,12.40
2023-05-16T20:41:10.969Z,12.40
2023-05-16T20:43:38.710Z,12.50
2023-05-16T20:46:06.777Z,12.60
2023-05-16T20:48:33.591Z,12.60
2023-05-16T20:51:01.578Z,12.50
2023-05-16T20:53:28.570Z,12.50
2023-05-16T20:55:55.587Z,12.40
2023-05-16T20:58:22.578Z,12.20
2023-05-16T21:00:55.277Z,12.10
2023-05-16T21:03:25.334Z,12.00
2023-05-16T21:05:53.620Z,11.90
2023-05-16T21:08:22.896Z,11.90
2023-05-16T21:10:55.441Z,11.80
2023-05-16T21:13:22.722Z,11.80
2023-05-16T21:15:51.779Z,11.70
2023-05-16T21:18:18.501Z,11.60
2023-05-16T21:20:45.334Z,11.50
2023-05-16T21:23:12.387Z,11.50
2023-05-16T21:25:41.160Z,11.40
2023-05-16T21:28:08.128Z,11.40
2023-05-16T21:30:35.117Z,11.40
2023-05-16T21:33:02.471Z,11.40
2023-05-16T21:35:32.576Z,11.30
2023-05-16T21:38:00.379Z,11.30
2023-05-16T21:40:28.927Z,11.20
2023-05-16T21:42:59.804Z,11.20
2023-05-16T21:45:32.325Z,11.20
2023-05-16T21:48:01.212Z,11.20
2023-05-16T21:50:29.134Z,11.20
2023-05-16T21:52:59.327Z,11.20
2023-05-16T21:55:27.564Z,11.10
2023-05-16T21:57:54.806Z,11.10
2023-05-16T22:00:21.844Z,11.10
2023-05-16T22:02:49.024Z,11.00
2023-05-16T22:05:19.431Z,10.90
2023-05-16T22:07:49.532Z,10.90
2023-05-16T22:10:16.963Z,10.90
2023-05-16T22:12:51.796Z,10.90
2023-05-16T22:15:18.895Z,10.90
2023-05-16T22:17:48.185Z,10.90
2023-05-16T22:20:18.282Z,10.90
2023-05-16T22:22:52.132Z,10.80
2023-05-16T22:25:20.495Z,10.60
2023-05-16T22:27:50.554Z,10.60
2023-05-16T22:30:18.448Z,10.50
2023-05-16T22:32:46.856Z,10.50
2023-05-16T22:35:15.846Z,10.50
2023-05-16T22:37:42.784Z,10.50
2023-05-16T22:40:10.023Z,10.50
2023-05-16T22:42:38.100Z,10.50
2023-05-16T22:45:06.127Z,10.50
2023-05-16T22:47:35.098Z,10.50
2023-05-16T22:50:02.970Z,10.50
2023-05-16T22:52:30.029Z,10.50
2023-05-16T22:55:01.776Z,10.50
2023-05-16T22:57:34.789Z,10.50
2023-05-16T23:00:04.813Z,10.50
2023-05-16T23:02:33.804Z,10.40
2023-05-16T23:05:00.871Z,10.40
2023-05-16T23:07:29.477Z,10.40
2023-05-16T23:09:56.562Z,10.30
2023-05-16T23:12:25.269Z,10.30
2023-05-16T23:14:52.381Z,10.30
2023-05-16T23:17:20.121Z,10.30
2023-05-16T23:19:46.912Z,10.20
2023-05-16T23:22:13.812Z,10.10
2023-05-16T23:24:40.899Z,10.30
2023-05-16T23:27:08.762Z,10.40
2023-05-16T23:29:35.946Z,10.30
2023-05-16T23:32:04.921Z,10.30
2023-05-16T23:34:32.736Z,10.30
2023-05-16T23:37:01.000Z,10.30
2023-05-16T23:39:28.149Z,10.30
2023-05-16T23:41:55.988Z,10.20
2023-05-16T23:44:23.021Z,10.10
2023-05-16T23:46:50.019Z,10.00
2023-05-16T23:49:17.883Z,10.10
2023-05-16T23:51:57.295Z,10.10
2023-05-16T23:54:25.871Z,10.10
2023-05-16T23:56:52.613Z,10.10
2023-05-16T23:59:19.677Z,10.00
